Decoded Metar for LFRI (LA ROCHE-SUR-YON in FRANCE) (IATA:EDM) | Meteo·Mobile Aviation Weather
aviador You're here:

LFRI Decoded Metar

LA ROCHE-SUR-YON in FRANCE
Report Time2018-11-19 21:30:00
UTC Time2018-11-19 22:06:03
Flight Rules vfr VFR
Wind360° at 06 kt
W.Decomp.*RWY 28: 0.8 kt HW 5.9 kt RCW
Visibility9999 m
Phenomena:N/A
Clouds:N/A
Expected CloudBase > 800 ft AGL from Temp-Dew spread
CeilingNone
Temp00°C (ISA -14)
Dew Point-2°C (87% RH)
AAT-4.4°C
QNH1006 hPa
Density Alt-1,148 ft
Elevation299 ft
Report Wrong Elevation
Raw Report
METAR LFRI 192130Z AUTO 36006KT CAVOK M00/M02 Q1006=

Extra information for LFRI:More info

Metar Taf Metar & Taf Last 4 Metars F.Rules Stats Wind Profile Meteogram Temp Stats Airport Information Weather charts Add Link Nearby VenuesMetar ALERT Operation Metar Decoded Social comments